Terminal Aerodrome Forecast
Issued by NWS Chicago, IL

Home | Current Version | Previous Version | Text Only | Print | Product List | Glossary Off
Versions: 1 2 3 4 5 6 7 8 9 10 11 12 13 14 15 16 17 18 19 20 21 22 23 24 25 26 27 28 29 30 31 32 33

000
FTUS43 KLOT 201344 AAB
TAFRFD
TAF AMD
KRFD 201344Z 2014/2112 30020G30KT P6SM VCSH OVC016
     FM201700 30018G28KT P6SM VCSH BKN022
     FM202100 28020G30KT P6SM BKN035
     FM210100 25009KT P6SM BKN080=

USA.gov is the U.S. government's official web portal to all federal, state and local government web resources and services.